Queen Victoria — ZCEF3 — position and weather

sailwx.info

Track history (hours):
 
Tides and Currents Weather Stations Pressure Air Temp Water Temp Dewpoint Dewpoint Depression Visibility Wind Speed Wind Dir Waves Ship Positions

Queen Victoria

Last reported at 2020-Jul-02 11:29 UTC. Time now 2020-Jul-02 14:31 UTC.
Position N 50°53' W 001°24'.

Length 294 m; draft 8 m.

Type: Ship. MMSI: 310624000.

Date/timePositionNaut miles runAvg speedWind from/ knotsBaromVisibWave heightAir tempDewpointWater temp
2020-Jul-02 11:29N 50°53' W 001°24'0 0.0
2020-Jul-02 10:59N 50°53' W 001°24'0 0.0
2020-Jul-02 10:29N 50°53' W 001°24'0 0.0
2020-Jul-02 09:29N 50°53' W 001°24'0 0.0
2020-Jul-02 08:59N 50°53' W 001°24'1 0.2
2020-Jul-02 06:30N 50°53' W 001°24'23 9.1
2020-Jul-02 04:00N 50°37' W 000°59'510.8
2020-Jul-02 03:30N 50°31' W 000°59'1110.1
2020-Jul-02 02:24N 50°27' W 001°16'1010.4
2020-Jul-02 01:28N 50°24' W 001°30'2110.9
2020-Jul-01 23:30N 50°19' W 002°03'12 2.5
2020-Jul-01 18:30N 50°26' W 002°18'11 2.0
2020-Jul-01 13:06N 50°37' W 002°21'  
2020-Jun-29 05:30N 50°25' W 002°16'7 6.7
2020-Jun-29 04:25N 50°24' W 002°27'29 7.3
2020-Jun-29 00:30N 50°15' W 003°10'9 8.5
2020-Jun-28 23:30N 50°08' W 003°16'5 4.7
2020-Jun-28 22:30N 50°06' W 003°10'5 9.9
2020-Jun-28 22:00N 50°08' W 003°03'510.0
2020-Jun-28 21:30N 50°11' W 002°56'3110.1
2020-Jun-28 18:25N 50°27' W 002°15'22 5.6
2020-Jun-28 14:30N 50°42' W 001°49'0 0.0
2020-Jun-28 13:30N 50°42' W 001°49'0 0.0
2020-Jun-28 11:57N 50°42' W 001°49'3 0.7
2020-Jun-28 07:30N 50°39' W 001°47'22 8.5
2020-Jun-28 04:57N 50°21' W 002°06'46 7.8
2020-Jun-27 23:00N 50°37' W 000°58'611.7
2020-Jun-27 22:30N 50°43' W 000°59'21 6.6
2020-Jun-27 19:24N 50°54' W 001°26'0 0.0
2020-Jun-27 18:54N 50°54' W 001°26'0 0.0
2020-Jun-27 16:27N 50°54' W 001°26'0 0.0
2020-Jun-27 13:57N 50°54' W 001°26'0 0.0
2020-Jun-27 13:30N 50°54' W 001°26'0 0.0
2020-Jun-27 09:30N 50°54' W 001°26'0 0.0
2020-Jun-27 08:00N 50°54' W 001°26'0 0.0
2020-Jun-27 07:30N 50°54' W 001°26'0 0.0
2020-Jun-27 05:57N 50°54' W 001°26'0 0.0
2020-Jun-27 02:21N 50°54' W 001°26'0 0.0
2020-Jun-27 01:57N 50°54' W 001°26'0 0.0
2020-Jun-27 01:00N 50°54' W 001°26'0 0.0
2020-Jun-26 23:00N 50°54' W 001°26'0 0.0
2020-Jun-26 21:00N 50°54' W 001°26'0 0.0
2020-Jun-26 20:30N 50°54' W 001°26'0 0.0
2020-Jun-26 18:57N 50°54' W 001°26'0 0.0
2020-Jun-26 17:27N 50°54' W 001°26'0 0.0
2020-Jun-26 16:00N 50°54' W 001°26'0 0.0
2020-Jun-26 14:00N 50°54' W 001°26'0 0.0
2020-Jun-26 12:57N 50°54' W 001°26'0 0.0
2020-Jun-26 12:30N 50°54' W 001°26'0 0.0
2020-Jun-26 12:00N 50°54' W 001°26'0 0.0
2020-Jun-26 11:24N 50°54' W 001°26'0 0.0
2020-Jun-26 10:57N 50°54' W 001°26'0 0.0
2020-Jun-26 08:00N 50°54' W 001°26'0 0.0
2020-Jun-26 07:30N 50°54' W 001°26'0 0.0
2020-Jun-26 07:00N 50°54' W 001°26'0 0.0
2020-Jun-26 06:00N 50°54' W 001°26'0 0.0
2020-Jun-26 05:30N 50°54' W 001°26'8 2.7
2020-Jun-26 02:30N 50°48' W 001°17'18 8.8
2020-Jun-26 00:30N 50°35' W 000°59'39 8.6
2020-Jun-25 20:00N 50°20' W 001°55'10 9.8
2020-Jun-25 18:58N 50°17' W 002°10'5 5.1
2020-Jun-25 18:01N 50°22' W 002°09'2315.0
2020-Jun-25 16:30N 50°40' W 001°48'2 1.0
2020-Jun-25 14:30N 50°42' W 001°50'0 0.0
2020-Jun-25 13:00N 50°42' W 001°50'0 0.0
2020-Jun-25 12:30N 50°42' W 001°50'0 0.0
2020-Jun-25 12:00N 50°42' W 001°50'0 0.0
2020-Jun-25 11:30N 50°42' W 001°50'0 0.0
2020-Jun-25 09:28N 50°42' W 001°50'0 0.0
2020-Jun-25 08:26N 50°42' W 001°50'0 0.0
2020-Jun-25 04:59N 50°42' W 001°50'0 0.1
2020-Jun-25 03:56N 50°42' W 001°50'0 0.0
2020-Jun-25 02:59N 50°42' W 001°50'0 0.0
2020-Jun-25 01:56N 50°42' W 001°50'0 0.1
2020-Jun-25 01:29N 50°42' W 001°50'0 0.1
2020-Jun-24 23:59N 50°42' W 001°49'0 0.0
2020-Jun-24 20:56N 50°42' W 001°49'20 8.4
2020-Jun-24 18:30N 50°32' W 001°22'20 6.5
2020-Jun-24 15:30N 50°51' W 001°21'3 2.2
2020-Jun-24 14:00N 50°54' W 001°24'0 0.0
2020-Jun-24 12:00N 50°54' W 001°24'0 0.0
2020-Jun-24 11:30N 50°54' W 001°24'611.0
2020-Jun-24 11:00N 50°48' W 001°24'6 5.6 1019.6
2020-Jun-24 10:00N 50°54' W 001°24'9 3.1
2020-Jun-24 07:01N 50°46' W 001°15'1212.2
2020-Jun-24 06:00N 50°40' W 000°59'20 9.9
2020-Jun-24 04:00N 50°26' W 001°21'1111.3
2020-Jun-24 03:00N 50°23' W 001°38'611.1
2020-Jun-24 02:30N 50°21' W 001°46'1610.9
2020-Jun-24 01:00N 50°19' W 002°12'23 7.8
2020-Jun-23 22:00N 50°20' W 002°48'612.0
2020-Jun-23 21:30N 50°22' W 002°39'19 6.2
2020-Jun-23 18:29N 50°37' W 002°23'0 0.0
2020-Jun-23 17:29N 50°37' W 002°23'0 0.0
2020-Jun-23 13:29N 50°37' W 002°23'0 0.0
2020-Jun-23 10:59N 50°37' W 002°23'0 0.0
2020-Jun-23 10:11N 50°37' W 002°23'0 0.1
2020-Jun-23 09:59N 50°37' W 002°23'0 0.0
2020-Jun-23 09:29N 50°37' W 002°23'0 0.0
2020-Jun-23 08:29N 50°37' W 002°23'0 0.0
2020-Jun-23 05:05N 50°37' W 002°23'0 0.0
2020-Jun-23 04:47N 50°37' W 002°23'0 0.0
2020-Jun-23 03:44N 50°37' W 002°23'0 0.0
2020-Jun-23 02:53N 50°37' W 002°23'0 0.0
2020-Jun-23 01:29N 50°37' W 002°23'0 0.0
2020-Jun-22 23:05N 50°37' W 002°23'0 0.0
2020-Jun-22 21:17N 50°37' W 002°23'0 0.0
2020-Jun-22 20:59N 50°37' W 002°23'0 0.0
2020-Jun-22 14:17N 50°37' W 002°23'0 0.0
2020-Jun-22 12:47N 50°37' W 002°23'  
Track history (hours):
 
Tides and Currents Weather Stations Pressure Air Temp Water Temp Dewpoint Dewpoint Depression Visibility Wind Speed Wind Dir Waves Ship Positions

Queen Victoria

Last reported at 2020-Jul-02 11:29 UTC. Time now 2020-Jul-02 14:31 UTC.
Position N 50°53' W 001°24'.

Length 294 m; draft 8 m.

Type: Ship. MMSI: 310624000.

Date/timePositionNaut miles runAvg speedWind from/ knotsBaromVisibWave heightAir tempDewpointWater temp
2020-Jul-02 11:29N 50°53' W 001°24'0 0.0
2020-Jul-02 10:59N 50°53' W 001°24'0 0.0
2020-Jul-02 10:29N 50°53' W 001°24'0 0.0
2020-Jul-02 09:29N 50°53' W 001°24'0 0.0
2020-Jul-02 08:59N 50°53' W 001°24'1 0.2
2020-Jul-02 06:30N 50°53' W 001°24'23 9.1
2020-Jul-02 04:00N 50°37' W 000°59'510.8
2020-Jul-02 03:30N 50°31' W 000°59'1110.1
2020-Jul-02 02:24N 50°27' W 001°16'1010.4
2020-Jul-02 01:28N 50°24' W 001°30'2110.9
2020-Jul-01 23:30N 50°19' W 002°03'12 2.5
2020-Jul-01 18:30N 50°26' W 002°18'11 2.0
2020-Jul-01 13:06N 50°37' W 002°21'  
2020-Jun-29 05:30N 50°25' W 002°16'7 6.7
2020-Jun-29 04:25N 50°24' W 002°27'29 7.3
2020-Jun-29 00:30N 50°15' W 003°10'9 8.5
2020-Jun-28 23:30N 50°08' W 003°16'5 4.7
2020-Jun-28 22:30N 50°06' W 003°10'5 9.9
2020-Jun-28 22:00N 50°08' W 003°03'510.0
2020-Jun-28 21:30N 50°11' W 002°56'3110.1
2020-Jun-28 18:25N 50°27' W 002°15'22 5.6
2020-Jun-28 14:30N 50°42' W 001°49'0 0.0
2020-Jun-28 13:30N 50°42' W 001°49'0 0.0
2020-Jun-28 11:57N 50°42' W 001°49'3 0.7
2020-Jun-28 07:30N 50°39' W 001°47'22 8.5
2020-Jun-28 04:57N 50°21' W 002°06'46 7.8
2020-Jun-27 23:00N 50°37' W 000°58'611.7
2020-Jun-27 22:30N 50°43' W 000°59'21 6.6
2020-Jun-27 19:24N 50°54' W 001°26'0 0.0
2020-Jun-27 18:54N 50°54' W 001°26'0 0.0
2020-Jun-27 16:27N 50°54' W 001°26'0 0.0
2020-Jun-27 13:57N 50°54' W 001°26'0 0.0
2020-Jun-27 13:30N 50°54' W 001°26'0 0.0
2020-Jun-27 09:30N 50°54' W 001°26'0 0.0
2020-Jun-27 08:00N 50°54' W 001°26'0 0.0
2020-Jun-27 07:30N 50°54' W 001°26'0 0.0
2020-Jun-27 05:57N 50°54' W 001°26'0 0.0
2020-Jun-27 02:21N 50°54' W 001°26'0 0.0
2020-Jun-27 01:57N 50°54' W 001°26'0 0.0
2020-Jun-27 01:00N 50°54' W 001°26'0 0.0
2020-Jun-26 23:00N 50°54' W 001°26'0 0.0
2020-Jun-26 21:00N 50°54' W 001°26'0 0.0
2020-Jun-26 20:30N 50°54' W 001°26'0 0.0
2020-Jun-26 18:57N 50°54' W 001°26'0 0.0
2020-Jun-26 17:27N 50°54' W 001°26'0 0.0
2020-Jun-26 16:00N 50°54' W 001°26'0 0.0
2020-Jun-26 14:00N 50°54' W 001°26'0 0.0
2020-Jun-26 12:57N 50°54' W 001°26'0 0.0
2020-Jun-26 12:30N 50°54' W 001°26'0 0.0
2020-Jun-26 12:00N 50°54' W 001°26'0 0.0
2020-Jun-26 11:24N 50°54' W 001°26'0 0.0
2020-Jun-26 10:57N 50°54' W 001°26'0 0.0
2020-Jun-26 08:00N 50°54' W 001°26'0 0.0
2020-Jun-26 07:30N 50°54' W 001°26'0 0.0
2020-Jun-26 07:00N 50°54' W 001°26'0 0.0
2020-Jun-26 06:00N 50°54' W 001°26'0 0.0
2020-Jun-26 05:30N 50°54' W 001°26'8 2.7
2020-Jun-26 02:30N 50°48' W 001°17'18 8.8
2020-Jun-26 00:30N 50°35' W 000°59'39 8.6
2020-Jun-25 20:00N 50°20' W 001°55'10 9.8
2020-Jun-25 18:58N 50°17' W 002°10'5 5.1
2020-Jun-25 18:01N 50°22' W 002°09'2315.0
2020-Jun-25 16:30N 50°40' W 001°48'2 1.0
2020-Jun-25 14:30N 50°42' W 001°50'0 0.0
2020-Jun-25 13:00N 50°42' W 001°50'0 0.0
2020-Jun-25 12:30N 50°42' W 001°50'0 0.0
2020-Jun-25 12:00N 50°42' W 001°50'0 0.0
2020-Jun-25 11:30N 50°42' W 001°50'0 0.0
2020-Jun-25 09:28N 50°42' W 001°50'0 0.0
2020-Jun-25 08:26N 50°42' W 001°50'0 0.0
2020-Jun-25 04:59N 50°42' W 001°50'0 0.1
2020-Jun-25 03:56N 50°42' W 001°50'0 0.0
2020-Jun-25 02:59N 50°42' W 001°50'0 0.0
2020-Jun-25 01:56N 50°42' W 001°50'0 0.1
2020-Jun-25 01:29N 50°42' W 001°50'0 0.1
2020-Jun-24 23:59N 50°42' W 001°49'0 0.0
2020-Jun-24 20:56N 50°42' W 001°49'20 8.4
2020-Jun-24 18:30N 50°32' W 001°22'20 6.5
2020-Jun-24 15:30N 50°51' W 001°21'3 2.2
2020-Jun-24 14:00N 50°54' W 001°24'0 0.0
2020-Jun-24 12:00N 50°54' W 001°24'0 0.0
2020-Jun-24 11:30N 50°54' W 001°24'611.0
2020-Jun-24 11:00N 50°48' W 001°24'6 5.6 1019.6
2020-Jun-24 10:00N 50°54' W 001°24'9 3.1
2020-Jun-24 07:01N 50°46' W 001°15'1212.2
2020-Jun-24 06:00N 50°40' W 000°59'20 9.9
2020-Jun-24 04:00N 50°26' W 001°21'1111.3
2020-Jun-24 03:00N 50°23' W 001°38'611.1
2020-Jun-24 02:30N 50°21' W 001°46'1610.9
2020-Jun-24 01:00N 50°19' W 002°12'23 7.8
2020-Jun-23 22:00N 50°20' W 002°48'612.0
2020-Jun-23 21:30N 50°22' W 002°39'19 6.2
2020-Jun-23 18:29N 50°37' W 002°23'0 0.0
2020-Jun-23 17:29N 50°37' W 002°23'0 0.0
2020-Jun-23 13:29N 50°37' W 002°23'0 0.0
2020-Jun-23 10:59N 50°37' W 002°23'0 0.0
2020-Jun-23 10:11N 50°37' W 002°23'0 0.1
2020-Jun-23 09:59N 50°37' W 002°23'0 0.0
2020-Jun-23 09:29N 50°37' W 002°23'0 0.0
2020-Jun-23 08:29N 50°37' W 002°23'0 0.0
2020-Jun-23 05:05N 50°37' W 002°23'0 0.0
2020-Jun-23 04:47N 50°37' W 002°23'0 0.0
2020-Jun-23 03:44N 50°37' W 002°23'0 0.0
2020-Jun-23 02:53N 50°37' W 002°23'0 0.0
2020-Jun-23 01:29N 50°37' W 002°23'0 0.0
2020-Jun-22 23:05N 50°37' W 002°23'0 0.0
2020-Jun-22 21:17N 50°37' W 002°23'0 0.0
2020-Jun-22 20:59N 50°37' W 002°23'0 0.0
2020-Jun-22 14:17N 50°37' W 002°23'0 0.0
2020-Jun-22 12:47N 50°37' W 002°23'  

Dump ship's entire track history